EmailTwitter


Observations de surface / France / LFMP (07747)

Régions: Québec | Canada | États-Unis | Europe | France | UK | Ailleurs
Station
Affichage
Infos & localisation pour LFMP (07747) | Aide pour décoder les METARs

Observations prises le 2017-10-21 à 17H30 UTC à PERPIGNAN/RIVESA, FR (LFMP)

Etat du ciel: couvert.

Température: 17.0 Celsius

Point de rosée: 10.0 Celsius

Humidité relative: 63%

Vents: Nord-ouest à 30 km/h ou 16 noeuds.

Pression au niveau moyen de la mer: 102.20 kilopascals.

Visibilité horizontale: 6.21 milles terrestres ou 9.94 kilomètres.

Hauteur du plafond: 2134 mètres ( 7000 pieds ).

Observation METAR:

LFMP 211730Z AUTO 31016KT 9999 OVC070 17/10 Q1022 NOSIG=